YM Venus — 9HCB8 — position and weather

sailwx.info

Track history (hours):
 
Tides and Currents Weather Stations Pressure Air Temp Water Temp Dewpoint Dewpoint Depression Visibility Wind Speed Wind Dir Waves Ship Positions

YM Venus

Last reported at 2015-Apr-26 04:32 UTC. Time now 2015-Apr-28 15:56 UTC.
Position N 40°48' E 018°04'.

Length 105 m; draft 6.8 m.

Type: Tanker. MMSI: 215826000.

Date/timePositionNaut miles runAvg speedWind from/ knotsBaromVisibWave heightAir tempDewpointWater temp
2015-Apr-26 04:32N 40°48' E 018°04'1211.9
2015-Apr-26 03:33N 40°39' E 018°14'1611.9
2015-Apr-26 02:11N 40°27' E 018°29'812.0
2015-Apr-26 01:34N 40°22' E 018°35'1211.9
2015-Apr-26 00:34N 40°12' E 018°45'1211.9
2015-Apr-25 23:33N 40°01' E 018°41'1212.1
2015-Apr-25 22:32N 39°49' E 018°36'1212.0
2015-Apr-25 21:31N 39°38' E 018°28'1712.3
2015-Apr-25 20:10N 39°25' E 018°15'24411.7
2015-Apr-24 23:21N 36°26' E 014°45'911.5
2015-Apr-24 22:33N 36°27' E 014°34'1211.6
2015-Apr-24 21:34N 36°32' E 014°22'1211.9
2015-Apr-24 20:33N 36°39' E 014°09'1211.7
2015-Apr-24 19:34N 36°44' E 013°56'1212.0
2015-Apr-24 18:33N 36°50' E 013°43'1312.2
2015-Apr-24 17:32N 36°57' E 013°30'36112.5
2015-Apr-23 12:33N 39°25' E 006°31'2912.8
2015-Apr-23 10:16N 39°39' E 005°58'911.9
2015-Apr-23 09:33N 39°43' E 005°48'1312.2
2015-Apr-23 08:28N 39°49' E 005°33'1211.9
2015-Apr-23 07:28N 39°55' E 005°19'1412.4
2015-Apr-23 06:19N 40°03' E 005°04'1312.1
2015-Apr-23 05:14N 40°09' E 004°49'7012.3
2015-Apr-22 23:33N 40°43' E 003°29'1212.0
2015-Apr-22 22:33N 40°49' E 003°15'1211.8
2015-Apr-22 21:34N 40°56' E 003°02'1212.1
2015-Apr-22 20:33N 41°02' E 002°48'1212.1
2015-Apr-22 19:33N 41°07' E 002°34'1212.2
2015-Apr-22 18:33N 41°13' E 002°19'1010.2
2015-Apr-22 17:33N 41°20' E 002°10'1 0.0
2015-Apr-21 19:33N 41°20' E 002°09'12 8.1
2015-Apr-21 18:07N 41°08' E 002°09'813.7
2015-Apr-21 17:33N 41°02' E 002°04'1413.7
2015-Apr-21 16:33N 40°49' E 001°55'1413.8
2015-Apr-21 15:33N 40°38' E 001°46'1413.8
2015-Apr-21 14:33N 40°25' E 001°39'1313.4
2015-Apr-21 13:34N 40°13' E 001°31'1312.6
2015-Apr-21 12:33N 40°02' E 001°22'1413.9
2015-Apr-21 11:34N 39°50' E 001°14'9813.5
2015-Apr-21 04:21N 38°24' E 000°14'1012.5
2015-Apr-21 03:33N 38°16' E 000°06'1312.7
2015-Apr-21 02:33N 38°05' W 000°03'1313.0
2015-Apr-21 01:33N 37°55' W 000°12'1212.4
2015-Apr-21 00:33N 37°45' W 000°21'1313.1
2015-Apr-20 23:33N 37°34' W 000°30'1312.9
2015-Apr-20 22:33N 37°25' W 000°42'1312.6
2015-Apr-20 21:33N 37°16' W 000°54'1312.9
2015-Apr-20 20:33N 37°08' W 001°06'21112.3
2015-Apr-20 03:21N 35°56' W 005°13'5 5.9
2015-Apr-20 02:32N 35°54' W 005°18'0 0.0
2015-Apr-20 01:29N 35°54' W 005°18'0 0.0
2015-Apr-20 00:32N 35°54' W 005°18'0 0.0
2015-Apr-19 23:32N 35°54' W 005°18'2 1.8
2015-Apr-19 22:33N 35°55' W 005°18'26411.3
2015-Apr-18 23:10N 38°15' W 009°60'812.8
2015-Apr-18 22:33N 38°23' W 010°02'1313.2
2015-Apr-18 21:33N 38°36' W 010°05'1313.1
2015-Apr-18 20:33N 38°49' W 010°06'1313.5
2015-Apr-18 19:33N 39°03' W 010°06'1413.4
2015-Apr-18 18:30N 39°17' W 010°06'  
Track history (hours):
 
Tides and Currents Weather Stations Pressure Air Temp Water Temp Dewpoint Dewpoint Depression Visibility Wind Speed Wind Dir Waves Ship Positions

YM Venus

Last reported at 2015-Apr-26 04:32 UTC. Time now 2015-Apr-28 15:56 UTC.
Position N 40°48' E 018°04'.

Length 105 m; draft 6.8 m.

Type: Tanker. MMSI: 215826000.

Date/timePositionNaut miles runAvg speedWind from/ knotsBaromVisibWave heightAir tempDewpointWater temp
2015-Apr-26 04:32N 40°48' E 018°04'1211.9
2015-Apr-26 03:33N 40°39' E 018°14'1611.9
2015-Apr-26 02:11N 40°27' E 018°29'812.0
2015-Apr-26 01:34N 40°22' E 018°35'1211.9
2015-Apr-26 00:34N 40°12' E 018°45'1211.9
2015-Apr-25 23:33N 40°01' E 018°41'1212.1
2015-Apr-25 22:32N 39°49' E 018°36'1212.0
2015-Apr-25 21:31N 39°38' E 018°28'1712.3
2015-Apr-25 20:10N 39°25' E 018°15'24411.7
2015-Apr-24 23:21N 36°26' E 014°45'911.5
2015-Apr-24 22:33N 36°27' E 014°34'1211.6
2015-Apr-24 21:34N 36°32' E 014°22'1211.9
2015-Apr-24 20:33N 36°39' E 014°09'1211.7
2015-Apr-24 19:34N 36°44' E 013°56'1212.0
2015-Apr-24 18:33N 36°50' E 013°43'1312.2
2015-Apr-24 17:32N 36°57' E 013°30'36112.5
2015-Apr-23 12:33N 39°25' E 006°31'2912.8
2015-Apr-23 10:16N 39°39' E 005°58'911.9
2015-Apr-23 09:33N 39°43' E 005°48'1312.2
2015-Apr-23 08:28N 39°49' E 005°33'1211.9
2015-Apr-23 07:28N 39°55' E 005°19'1412.4
2015-Apr-23 06:19N 40°03' E 005°04'1312.1
2015-Apr-23 05:14N 40°09' E 004°49'7012.3
2015-Apr-22 23:33N 40°43' E 003°29'1212.0
2015-Apr-22 22:33N 40°49' E 003°15'1211.8
2015-Apr-22 21:34N 40°56' E 003°02'1212.1
2015-Apr-22 20:33N 41°02' E 002°48'1212.1
2015-Apr-22 19:33N 41°07' E 002°34'1212.2
2015-Apr-22 18:33N 41°13' E 002°19'1010.2
2015-Apr-22 17:33N 41°20' E 002°10'1 0.0
2015-Apr-21 19:33N 41°20' E 002°09'12 8.1
2015-Apr-21 18:07N 41°08' E 002°09'813.7
2015-Apr-21 17:33N 41°02' E 002°04'1413.7
2015-Apr-21 16:33N 40°49' E 001°55'1413.8
2015-Apr-21 15:33N 40°38' E 001°46'1413.8
2015-Apr-21 14:33N 40°25' E 001°39'1313.4
2015-Apr-21 13:34N 40°13' E 001°31'1312.6
2015-Apr-21 12:33N 40°02' E 001°22'1413.9
2015-Apr-21 11:34N 39°50' E 001°14'9813.5
2015-Apr-21 04:21N 38°24' E 000°14'1012.5
2015-Apr-21 03:33N 38°16' E 000°06'1312.7
2015-Apr-21 02:33N 38°05' W 000°03'1313.0
2015-Apr-21 01:33N 37°55' W 000°12'1212.4
2015-Apr-21 00:33N 37°45' W 000°21'1313.1
2015-Apr-20 23:33N 37°34' W 000°30'1312.9
2015-Apr-20 22:33N 37°25' W 000°42'1312.6
2015-Apr-20 21:33N 37°16' W 000°54'1312.9
2015-Apr-20 20:33N 37°08' W 001°06'21112.3
2015-Apr-20 03:21N 35°56' W 005°13'5 5.9
2015-Apr-20 02:32N 35°54' W 005°18'0 0.0
2015-Apr-20 01:29N 35°54' W 005°18'0 0.0
2015-Apr-20 00:32N 35°54' W 005°18'0 0.0
2015-Apr-19 23:32N 35°54' W 005°18'2 1.8
2015-Apr-19 22:33N 35°55' W 005°18'26411.3
2015-Apr-18 23:10N 38°15' W 009°60'812.8
2015-Apr-18 22:33N 38°23' W 010°02'1313.2
2015-Apr-18 21:33N 38°36' W 010°05'1313.1
2015-Apr-18 20:33N 38°49' W 010°06'1313.5
2015-Apr-18 19:33N 39°03' W 010°06'1413.4
2015-Apr-18 18:30N 39°17' W 010°06'  

Dump ship's entire track history